createdAt,value
2023-01-30T00:01:00.503Z,75.95
2023-01-30T00:03:37.179Z,76.03
2023-01-30T00:06:14.280Z,76.03
2023-01-30T00:08:50.578Z,76.02
2023-01-30T00:11:28.961Z,76.07
2023-01-30T00:14:05.629Z,76.21
2023-01-30T00:16:43.003Z,76.26
2023-01-30T00:19:19.386Z,76.21
2023-01-30T00:21:55.647Z,76.34
2023-01-30T00:24:32.057Z,76.46
2023-01-30T00:27:08.386Z,76.42
2023-01-30T00:29:57.589Z,76.33
2023-01-30T00:32:39.356Z,76.24
2023-01-30T00:35:15.947Z,76.15
2023-01-30T00:37:52.254Z,76.12
2023-01-30T00:40:30.553Z,76.14
2023-01-30T00:43:24.749Z,76.19
2023-01-30T00:46:19.840Z,76.23
2023-01-30T00:48:56.066Z,76.30
2023-01-30T00:51:32.470Z,76.25
2023-01-30T00:54:09.185Z,76.16
2023-01-30T00:56:45.628Z,76.07
2023-01-30T00:59:22.080Z,76.10
2023-01-30T01:01:58.416Z,76.11
2023-01-30T01:04:43.566Z,76.04
2023-01-30T01:07:21.388Z,76.08
2023-01-30T01:09:59.332Z,76.00
2023-01-30T01:12:35.606Z,75.96
2023-01-30T01:15:14.517Z,75.99
2023-01-30T01:17:51.603Z,75.87
2023-01-30T01:20:28.391Z,75.80
2023-01-30T01:23:05.544Z,75.79
2023-01-30T01:25:42.048Z,75.65
2023-01-30T01:28:21.870Z,75.67
2023-01-30T01:30:58.685Z,75.74
2023-01-30T01:33:36.918Z,75.84
2023-01-30T01:36:29.293Z,75.74
2023-01-30T01:39:10.916Z,75.66
2023-01-30T01:41:47.240Z,75.71
2023-01-30T01:44:25.308Z,75.76
2023-01-30T01:47:03.073Z,75.71
2023-01-30T01:49:41.696Z,75.70
2023-01-30T01:52:20.653Z,75.70
2023-01-30T01:55:02.339Z,75.67
2023-01-30T01:57:46.213Z,75.59
2023-01-30T02:00:26.662Z,75.61
2023-01-30T02:03:11.653Z,75.68
2023-01-30T02:05:56.547Z,75.70
2023-01-30T02:08:39.011Z,75.65
2023-01-30T02:11:27.082Z,75.70
2023-01-30T02:14:05.650Z,75.88
2023-01-30T02:16:44.740Z,76.09
2023-01-30T02:19:36.314Z,76.22
2023-01-30T02:23:14.140Z,76.27
2023-01-30T02:26:58.555Z,76.33
2023-01-30T02:30:25.699Z,76.54
2023-01-30T02:33:23.352Z,76.65
2023-01-30T02:36:16.371Z,76.70
2023-01-30T02:39:07.599Z,76.80
2023-01-30T02:42:02.017Z,76.91
2023-01-30T02:44:53.394Z,77.07
2023-01-30T02:47:40.756Z,77.12
2023-01-30T02:50:24.451Z,77.30
2023-01-30T02:53:01.637Z,77.33
2023-01-30T02:55:41.478Z,77.41
2023-01-30T02:58:22.441Z,77.58
2023-01-30T03:01:58.386Z,77.76
2023-01-30T03:05:03.018Z,77.91
2023-01-30T03:07:56.879Z,78.00
2023-01-30T03:10:44.937Z,78.21
2023-01-30T03:13:36.199Z,78.33
2023-01-30T03:16:18.589Z,78.40
2023-01-30T03:18:55.581Z,78.32
2023-01-30T03:21:31.919Z,78.27
2023-01-30T03:24:09.913Z,78.31
2023-01-30T03:27:09.169Z,78.35
2023-01-30T03:29:46.026Z,78.23
2023-01-30T03:32:22.430Z,78.19
2023-01-30T03:34:59.879Z,78.14
2023-01-30T03:37:37.242Z,78.04
2023-01-30T03:40:18.552Z,78.08
2023-01-30T03:42:55.182Z,78.02
2023-01-30T03:45:31.683Z,77.96
2023-01-30T03:48:09.034Z,77.82
2023-01-30T03:50:45.629Z,77.80
2023-01-30T03:53:21.914Z,77.87
2023-01-30T03:55:58.673Z,77.81
2023-01-30T03:58:37.403Z,77.67
2023-01-30T04:01:25.298Z,77.63
2023-01-30T04:04:01.756Z,77.64
2023-01-30T04:06:38.202Z,77.65
2023-01-30T04:09:14.797Z,77.61
2023-01-30T04:11:54.691Z,77.65
2023-01-30T04:14:31.935Z,77.44
2023-01-30T04:17:26.600Z,77.40
2023-01-30T04:20:22.516Z,77.40
2023-01-30T04:23:02.031Z,77.40
2023-01-30T04:25:40.111Z,77.45
2023-01-30T04:28:18.022Z,77.46
2023-01-30T04:30:55.504Z,77.39
2023-01-30T04:33:51.475Z,77.46
2023-01-30T04:36:29.340Z,77.48
2023-01-30T04:39:06.005Z,77.51
2023-01-30T04:41:42.437Z,77.57
2023-01-30T04:44:18.791Z,77.55
2023-01-30T04:47:35.960Z,77.49
2023-01-30T04:50:14.571Z,77.38
2023-01-30T04:52:50.956Z,77.30
2023-01-30T04:55:27.430Z,77.04
2023-01-30T04:58:04.401Z,77.04
2023-01-30T05:00:40.839Z,76.75
2023-01-30T05:03:18.145Z,76.65
2023-01-30T05:05:54.411Z,76.50
2023-01-30T05:08:30.693Z,76.29
2023-01-30T05:11:07.062Z,76.15
2023-01-30T05:13:44.009Z,75.83
2023-01-30T05:16:22.418Z,75.61
2023-01-30T05:18:58.919Z,75.38
2023-01-30T05:21:35.256Z,75.25
2023-01-30T05:24:12.994Z,74.96
2023-01-30T05:26:49.319Z,74.72
2023-01-30T05:29:26.127Z,74.62
2023-01-30T05:32:02.392Z,74.47
2023-01-30T05:34:38.758Z,74.14
2023-01-30T05:37:15.727Z,73.97
2023-01-30T05:39:52.031Z,73.71
2023-01-30T05:42:28.364Z,73.41
2023-01-30T05:45:05.035Z,72.98
2023-01-30T05:47:41.515Z,72.47
2023-01-30T05:50:20.306Z,71.95
2023-01-30T05:52:56.797Z,72.00
2023-01-30T05:55:33.021Z,71.50
2023-01-30T05:58:09.243Z,71.05
2023-01-30T06:00:45.587Z,70.89
2023-01-30T06:03:22.479Z,70.71
2023-01-30T06:05:59.328Z,70.46
2023-01-30T06:08:36.201Z,70.19
2023-01-30T06:11:16.957Z,70.23
2023-01-30T06:13:53.439Z,70.26
2023-01-30T06:16:30.228Z,70.38
2023-01-30T06:19:06.577Z,69.78
2023-01-30T06:21:42.874Z,69.76
2023-01-30T06:24:19.711Z,69.78
2023-01-30T06:26:56.193Z,69.55
2023-01-30T06:29:32.406Z,69.29
2023-01-30T06:32:09.774Z,69.22
2023-01-30T06:34:46.104Z,69.07
2023-01-30T06:37:22.415Z,69.04
2023-01-30T06:39:58.670Z,69.27
2023-01-30T06:42:35.060Z,69.39
2023-01-30T06:45:14.797Z,69.72
2023-01-30T06:47:56.685Z,69.76
2023-01-30T06:50:32.367Z,69.85
2023-01-30T06:53:12.233Z,69.80
2023-01-30T06:55:48.622Z,69.99
2023-01-30T06:58:24.972Z,70.00
2023-01-30T07:01:02.197Z,70.07
2023-01-30T07:03:38.654Z,70.04
2023-01-30T07:06:15.148Z,70.14
2023-01-30T07:08:51.581Z,69.96
2023-01-30T07:11:28.001Z,70.11
2023-01-30T07:14:05.710Z,70.31
2023-01-30T07:16:42.716Z,70.13
2023-01-30T07:19:19.222Z,70.10
2023-01-30T07:21:55.606Z,69.76
2023-01-30T07:24:31.932Z,69.64
2023-01-30T07:27:09.389Z,69.46
2023-01-30T07:29:45.856Z,69.66
2023-01-30T07:32:23.709Z,69.64
2023-01-30T07:34:59.954Z,69.43
2023-01-30T07:37:36.337Z,69.22
2023-01-30T07:40:16.708Z,69.28
2023-01-30T07:43:04.961Z,69.05
2023-01-30T07:45:45.428Z,69.00
2023-01-30T07:48:23.349Z,68.81
2023-01-30T07:51:01.283Z,68.66
2023-01-30T07:53:37.551Z,68.19
2023-01-30T07:56:18.802Z,68.40
2023-01-30T07:58:57.467Z,68.10
2023-01-30T08:01:34.005Z,67.50
2023-01-30T08:04:10.389Z,67.65
2023-01-30T08:06:47.017Z,67.23
2023-01-30T08:09:23.607Z,66.97
2023-01-30T08:11:59.972Z,66.92
2023-01-30T08:14:36.430Z,66.18
2023-01-30T08:17:12.744Z,66.29
2023-01-30T08:19:49.277Z,65.77
2023-01-30T08:22:25.535Z,65.76
2023-01-30T08:25:01.917Z,65.81
2023-01-30T08:27:38.233Z,65.31
2023-01-30T08:30:18.096Z,64.74
2023-01-30T08:32:54.487Z,64.42
2023-01-30T08:35:31.118Z,64.13
2023-01-30T08:38:10.220Z,63.69
2023-01-30T08:40:46.629Z,64.07
2023-01-30T08:43:23.026Z,64.53
2023-01-30T08:46:00.920Z,64.14
2023-01-30T08:48:49.124Z,63.34
2023-01-30T08:51:26.038Z,62.84
2023-01-30T08:54:02.842Z,63.24
2023-01-30T08:56:39.173Z,63.11
2023-01-30T08:59:15.839Z,62.81
2023-01-30T09:01:52.346Z,62.58
2023-01-30T09:04:30.319Z,62.37
2023-01-30T09:07:06.617Z,62.14
2023-01-30T09:09:42.985Z,62.12
2023-01-30T09:12:19.418Z,62.02
2023-01-30T09:14:55.990Z,62.18
2023-01-30T09:17:32.352Z,61.52
2023-01-30T09:20:12.275Z,61.63
2023-01-30T09:22:49.504Z,62.07
2023-01-30T09:25:26.189Z,61.21
2023-01-30T09:28:02.387Z,60.98
2023-01-30T09:30:38.885Z,61.59
2023-01-30T09:33:20.416Z,61.44
2023-01-30T09:35:57.463Z,61.87
2023-01-30T09:38:33.931Z,61.33
2023-01-30T09:41:47.552Z,61.53
2023-01-30T09:45:12.148Z,62.39
2023-01-30T09:48:05.217Z,62.57
2023-01-30T09:51:16.514Z,63.00
2023-01-30T09:54:20.413Z,62.74
2023-01-30T09:57:20.833Z,63.21
2023-01-30T10:00:08.543Z,63.47
2023-01-30T10:03:04.738Z,63.94
2023-01-30T10:05:48.717Z,64.18
2023-01-30T10:08:50.109Z,64.39
2023-01-30T10:11:48.055Z,64.49
2023-01-30T10:14:56.943Z,64.91
2023-01-30T10:17:59.804Z,65.15
2023-01-30T10:20:53.814Z,65.15
2023-01-30T10:24:33.356Z,65.31
2023-01-30T10:27:18.526Z,65.74
2023-01-30T10:29:59.224Z,65.50
2023-01-30T10:32:44.666Z,65.44
2023-01-30T10:35:28.268Z,65.39
2023-01-30T10:38:14.319Z,65.27
2023-01-30T10:40:59.502Z,65.63
2023-01-30T10:43:45.792Z,65.12
2023-01-30T10:46:55.858Z,65.58
2023-01-30T10:49:45.337Z,65.68
2023-01-30T10:52:43.866Z,65.91
2023-01-30T10:55:41.363Z,66.47
2023-01-30T10:58:33.175Z,66.67
2023-01-30T11:01:18.414Z,67.07
2023-01-30T11:04:03.358Z,67.34
2023-01-30T11:06:39.872Z,67.55
2023-01-30T11:09:17.187Z,67.75
2023-01-30T11:11:57.710Z,67.97
2023-01-30T11:14:53.337Z,68.36
2023-01-30T11:17:39.997Z,68.74
2023-01-30T11:20:24.510Z,69.15
2023-01-30T11:23:26.642Z,69.46
2023-01-30T11:26:10.931Z,70.00
2023-01-30T11:28:49.214Z,70.96
2023-01-30T11:31:41.270Z,71.50
2023-01-30T11:34:24.316Z,71.85
2023-01-30T11:37:26.797Z,72.32
2023-01-30T11:40:21.737Z,72.65
2023-01-30T11:43:12.425Z,72.66
2023-01-30T11:45:53.481Z,72.60
2023-01-30T11:49:01.907Z,72.70
2023-01-30T11:51:36.650Z,72.85
2023-01-30T11:54:21.343Z,72.91
2023-01-30T11:57:02.952Z,73.13
2023-01-30T11:59:45.001Z,73.01
2023-01-30T12:02:30.524Z,73.17
2023-01-30T12:05:31.130Z,73.30
2023-01-30T12:08:41.176Z,73.61
2023-01-30T12:11:46.110Z,74.04
2023-01-30T12:14:44.985Z,74.29
2023-01-30T12:17:29.180Z,74.69
2023-01-30T12:20:19.160Z,75.18
2023-01-30T12:23:11.641Z,75.68
2023-01-30T12:26:05.040Z,75.93
2023-01-30T12:28:55.198Z,76.18
2023-01-30T12:31:38.146Z,76.47
2023-01-30T12:34:15.618Z,76.53
2023-01-30T12:37:06.765Z,76.66
2023-01-30T12:40:03.895Z,76.77
2023-01-30T12:43:09.797Z,76.68
2023-01-30T12:46:04.121Z,76.55
2023-01-30T12:49:11.357Z,76.79
2023-01-30T12:52:18.474Z,76.86
2023-01-30T12:55:11.004Z,76.95
2023-01-30T12:57:59.023Z,77.04
2023-01-30T13:01:01.553Z,77.02
2023-01-30T13:03:51.926Z,77.04
2023-01-30T13:06:58.225Z,77.28
2023-01-30T13:10:10.116Z,77.38
2023-01-30T13:12:58.184Z,77.40
2023-01-30T13:15:50.287Z,77.49
2023-01-30T13:18:37.464Z,77.68
2023-01-30T13:21:24.755Z,77.92
2023-01-30T13:24:23.277Z,78.20
2023-01-30T13:27:08.157Z,78.48
2023-01-30T13:29:47.012Z,78.48
2023-01-30T13:32:41.693Z,78.57
2023-01-30T13:35:25.802Z,78.78
2023-01-30T13:38:05.654Z,78.88
2023-01-30T13:40:49.128Z,78.98
2023-01-30T13:43:35.401Z,79.09
2023-01-30T13:46:20.518Z,79.40
2023-01-30T13:49:19.198Z,79.57
2023-01-30T13:52:04.212Z,79.72
2023-01-30T13:55:08.402Z,79.87
2023-01-30T13:58:03.473Z,80.13
2023-01-30T14:00:40.912Z,80.15
2023-01-30T14:03:31.950Z,80.25
2023-01-30T14:06:38.970Z,80.37
2023-01-30T14:09:34.043Z,80.75
2023-01-30T14:12:21.532Z,80.78
2023-01-30T14:15:25.763Z,80.83
2023-01-30T14:18:23.557Z,81.01
2023-01-30T14:21:20.184Z,81.12
2023-01-30T14:24:05.156Z,81.51
2023-01-30T14:27:32.127Z,81.67
2023-01-30T14:30:47.884Z,81.69
2023-01-30T14:33:52.926Z,81.81
2023-01-30T14:36:50.822Z,81.92
2023-01-30T14:39:53.447Z,82.04
2023-01-30T14:42:32.649Z,82.10
2023-01-30T14:45:39.386Z,81.91
2023-01-30T14:48:36.836Z,81.79
2023-01-30T14:51:34.750Z,81.67
2023-01-30T14:54:36.705Z,81.40
2023-01-30T14:57:32.786Z,81.25
2023-01-30T15:00:24.991Z,80.99
2023-01-30T15:03:03.609Z,80.87
2023-01-30T15:05:47.031Z,80.48
2023-01-30T15:08:27.997Z,80.07
2023-01-30T15:11:28.371Z,79.90
2023-01-30T15:14:19.214Z,79.62
2023-01-30T15:17:33.237Z,79.47
2023-01-30T15:20:46.755Z,79.34
2023-01-30T15:24:01.492Z,79.21
2023-01-30T15:26:56.220Z,79.04
2023-01-30T15:30:28.773Z,78.92
2023-01-30T15:33:29.283Z,78.83
2023-01-30T15:36:25.491Z,78.75
2023-01-30T15:39:17.723Z,78.63
2023-01-30T15:41:58.256Z,78.56
2023-01-30T15:45:05.215Z,78.42
2023-01-30T15:48:11.494Z,78.28
2023-01-30T15:50:57.240Z,78.17
2023-01-30T15:53:41.393Z,78.12
2023-01-30T15:56:25.901Z,78.00
2023-01-30T15:59:04.497Z,78.07
2023-01-30T16:01:41.025Z,78.16
2023-01-30T16:04:32.561Z,78.28
2023-01-30T16:07:27.776Z,78.38
2023-01-30T16:10:07.778Z,78.42
2023-01-30T16:12:45.070Z,78.46
2023-01-30T16:15:31.529Z,78.39
2023-01-30T16:18:25.686Z,78.37
2023-01-30T16:21:06.163Z,78.38
2023-01-30T16:23:56.162Z,78.34
2023-01-30T16:26:33.931Z,78.44
2023-01-30T16:29:19.180Z,78.52
2023-01-30T16:31:57.368Z,78.77
2023-01-30T16:34:40.053Z,78.94
2023-01-30T16:37:32.766Z,79.16
2023-01-30T16:40:27.935Z,79.18
2023-01-30T16:43:18.250Z,79.11
2023-01-30T16:47:00.457Z,79.15
2023-01-30T16:49:52.889Z,79.03
2023-01-30T16:52:37.090Z,79.06
2023-01-30T16:55:24.463Z,79.00
2023-01-30T16:58:04.604Z,79.03
2023-01-30T17:00:45.228Z,79.07
2023-01-30T17:03:31.828Z,79.15
2023-01-30T17:06:21.212Z,79.19
2023-01-30T17:08:59.309Z,79.29
2023-01-30T17:11:41.597Z,79.30
2023-01-30T17:14:31.384Z,79.21
2023-01-30T17:17:10.481Z,79.15
2023-01-30T17:19:49.779Z,79.09
2023-01-30T17:22:27.354Z,79.03
2023-01-30T17:25:12.514Z,78.89
2023-01-30T17:27:49.511Z,78.79
2023-01-30T17:30:26.809Z,78.52
2023-01-30T17:33:03.221Z,78.37
2023-01-30T17:35:40.638Z,78.24
2023-01-30T17:38:17.325Z,78.29
2023-01-30T17:40:53.856Z,78.15
2023-01-30T17:43:30.768Z,78.03
2023-01-30T17:46:07.384Z,77.90
2023-01-30T17:48:44.505Z,77.74
2023-01-30T17:51:20.897Z,77.63
2023-01-30T17:53:57.452Z,77.56
2023-01-30T17:56:39.363Z,77.47
2023-01-30T17:59:19.102Z,77.49
2023-01-30T18:01:56.911Z,77.45
2023-01-30T18:04:33.564Z,77.39
2023-01-30T18:07:16.602Z,77.37
2023-01-30T18:09:52.905Z,77.17
2023-01-30T18:12:29.419Z,77.15
2023-01-30T18:15:06.473Z,77.15
2023-01-30T18:17:48.397Z,77.10
2023-01-30T18:20:24.085Z,77.20
2023-01-30T18:23:01.006Z,77.20
2023-01-30T18:25:37.386Z,77.16
2023-01-30T18:28:15.924Z,77.14
2023-01-30T18:30:52.221Z,77.12
2023-01-30T18:33:29.618Z,77.11
2023-01-30T18:36:10.496Z,77.12
2023-01-30T18:38:47.351Z,77.01
2023-01-30T18:41:26.425Z,76.94
2023-01-30T18:44:05.919Z,77.07
2023-01-30T18:46:42.473Z,77.08
2023-01-30T18:49:19.224Z,77.18
2023-01-30T18:51:56.567Z,77.34
2023-01-30T18:54:33.066Z,77.60
2023-01-30T18:57:09.400Z,77.75
2023-01-30T18:59:45.647Z,77.88
2023-01-30T19:02:22.226Z,77.95
2023-01-30T19:04:58.657Z,77.92
2023-01-30T19:07:36.109Z,77.90
2023-01-30T19:10:17.865Z,77.97
2023-01-30T19:13:12.507Z,78.02
2023-01-30T19:15:48.998Z,78.04
2023-01-30T19:18:26.953Z,78.06
2023-01-30T19:21:06.800Z,78.03
2023-01-30T19:23:43.248Z,78.07
2023-01-30T19:26:21.652Z,78.19
2023-01-30T19:28:59.013Z,78.24
2023-01-30T19:31:35.658Z,78.28
2023-01-30T19:34:14.389Z,78.33
2023-01-30T19:36:50.749Z,78.31
2023-01-30T19:39:27.331Z,78.28
2023-01-30T19:42:03.778Z,78.16
2023-01-30T19:44:41.239Z,78.07
2023-01-30T19:47:21.942Z,77.97
2023-01-30T19:49:58.337Z,77.91
2023-01-30T19:52:34.837Z,77.93
2023-01-30T19:55:12.896Z,77.86
2023-01-30T19:57:49.764Z,77.80
2023-01-30T20:00:27.409Z,77.76
2023-01-30T20:03:04.048Z,77.64
2023-01-30T20:05:40.584Z,77.64
2023-01-30T20:08:31.571Z,77.55
2023-01-30T20:11:11.856Z,77.51
2023-01-30T20:13:51.421Z,77.44
2023-01-30T20:16:31.473Z,77.42
2023-01-30T20:19:13.357Z,77.40
2023-01-30T20:21:50.004Z,77.40
2023-01-30T20:24:26.379Z,77.48
2023-01-30T20:27:04.600Z,77.49
2023-01-30T20:29:41.039Z,77.40
2023-01-30T20:32:17.578Z,77.34
2023-01-30T20:34:54.224Z,77.31
2023-01-30T20:37:30.549Z,77.28
2023-01-30T20:40:08.450Z,77.26
2023-01-30T20:42:44.877Z,77.39
2023-01-30T20:45:21.328Z,77.63
2023-01-30T20:47:57.784Z,77.82
2023-01-30T20:50:34.700Z,77.94
2023-01-30T20:53:12.098Z,78.19
2023-01-30T20:55:49.576Z,78.50
2023-01-30T20:58:26.187Z,78.67
2023-01-30T21:01:12.860Z,79.05
2023-01-30T21:03:52.498Z,79.62
2023-01-30T21:06:42.414Z,80.09
2023-01-30T21:09:24.585Z,80.54
2023-01-30T21:12:01.998Z,80.90
2023-01-30T21:14:39.421Z,81.10
2023-01-30T21:17:15.852Z,81.39
2023-01-30T21:19:52.315Z,81.82
2023-01-30T21:22:28.685Z,82.31
2023-01-30T21:25:05.592Z,82.53
2023-01-30T21:27:43.870Z,82.86
2023-01-30T21:30:20.979Z,82.95
2023-01-30T21:32:58.970Z,83.16
2023-01-30T21:35:36.648Z,83.22
2023-01-30T21:38:32.155Z,83.33
2023-01-30T21:41:27.591Z,83.35
2023-01-30T21:44:04.123Z,83.61
2023-01-30T21:46:45.453Z,83.79
2023-01-30T21:49:25.267Z,83.85
2023-01-30T21:52:01.739Z,83.95
2023-01-30T21:54:39.054Z,84.15
2023-01-30T21:57:15.483Z,84.07
2023-01-30T21:59:51.843Z,84.22
2023-01-30T22:02:28.276Z,84.27
2023-01-30T22:05:05.389Z,84.26
2023-01-30T22:07:41.773Z,84.19
2023-01-30T22:10:19.506Z,84.32
2023-01-30T22:12:55.897Z,84.27
2023-01-30T22:15:33.949Z,84.28
2023-01-30T22:18:10.475Z,84.46
2023-01-30T22:20:46.728Z,84.45
2023-01-30T22:23:23.036Z,84.51
2023-01-30T22:26:01.852Z,84.73
2023-01-30T22:28:38.557Z,84.69
2023-01-30T22:31:18.392Z,84.81
2023-01-30T22:33:57.201Z,84.75
2023-01-30T22:36:36.135Z,84.77
2023-01-30T22:39:12.728Z,84.67
2023-01-30T22:41:49.052Z,84.66
2023-01-30T22:44:25.718Z,84.66
2023-01-30T22:47:02.252Z,84.75
2023-01-30T22:49:38.764Z,84.77
2023-01-30T22:52:15.737Z,84.89
2023-01-30T22:54:52.056Z,84.96
2023-01-30T22:57:28.475Z,84.83
2023-01-30T23:00:05.708Z,84.89
2023-01-30T23:02:42.330Z,84.82
2023-01-30T23:05:19.286Z,84.81
2023-01-30T23:07:55.878Z,84.92
2023-01-30T23:10:32.247Z,84.94
2023-01-30T23:13:08.712Z,84.99
2023-01-30T23:15:46.897Z,85.07
2023-01-30T23:18:40.899Z,84.99
2023-01-30T23:21:18.597Z,84.90
2023-01-30T23:23:57.757Z,84.89
2023-01-30T23:26:40.328Z,84.91
2023-01-30T23:29:21.534Z,84.77
2023-01-30T23:31:57.924Z,84.61
2023-01-30T23:34:34.574Z,84.60
2023-01-30T23:37:10.781Z,84.63
2023-01-30T23:39:47.806Z,84.63
2023-01-30T23:42:24.062Z,84.64
2023-01-30T23:45:00.363Z,84.62
2023-01-30T23:47:36.884Z,84.65
2023-01-30T23:50:15.462Z,84.47
2023-01-30T23:52:51.670Z,84.43
2023-01-30T23:55:28.017Z,84.35
2023-01-30T23:58:04.605Z,84.31
